sensor_id;sensor_type;location;lat;lon;timestamp;P1;durP1;ratioP1;P2;durP2;ratioP2
31906;SDS011;18455;50.858;13.662;2024-03-02T00:03:49;70.63;;;41.63;;
31906;SDS011;18455;50.858;13.662;2024-03-02T00:08:50;80.87;;;43.13;;
31906;SDS011;18455;50.858;13.662;2024-03-02T00:13:52;70.53;;;41.63;;
31906;SDS011;18455;50.858;13.662;2024-03-02T00:18:52;78.07;;;43.17;;
31906;SDS011;18455;50.858;13.662;2024-03-02T00:23:52;97.00;;;47.07;;
31906;SDS011;18455;50.858;13.662;2024-03-02T00:28:54;84.00;;;45.40;;
31906;SDS011;18455;50.858;13.662;2024-03-02T00:33:55;106.93;;;51.23;;
31906;SDS011;18455;50.858;13.662;2024-03-02T00:38:55;123.47;;;55.50;;
31906;SDS011;18455;50.858;13.662;2024-03-02T00:44:00;101.93;;;50.67;;
31906;SDS011;18455;50.858;13.662;2024-03-02T00:49:01;122.90;;;53.07;;
31906;SDS011;18455;50.858;13.662;2024-03-02T00:54:05;139.73;;;55.30;;
31906;SDS011;18455;50.858;13.662;2024-03-02T00:59:06;109.73;;;50.17;;
31906;SDS011;18455;50.858;13.662;2024-03-02T01:04:06;119.57;;;50.07;;
31906;SDS011;18455;50.858;13.662;2024-03-02T01:09:06;126.90;;;51.23;;
31906;SDS011;18455;50.858;13.662;2024-03-02T01:14:06;119.13;;;51.03;;
31906;SDS011;18455;50.858;13.662;2024-03-02T01:19:07;122.43;;;49.33;;
31906;SDS011;18455;50.858;13.662;2024-03-02T01:24:07;108.90;;;46.57;;
31906;SDS011;18455;50.858;13.662;2024-03-02T01:29:07;99.83;;;45.13;;
31906;SDS011;18455;50.858;13.662;2024-03-02T01:34:08;92.77;;;40.13;;
31906;SDS011;18455;50.858;13.662;2024-03-02T01:39:08;93.03;;;44.20;;
31906;SDS011;18455;50.858;13.662;2024-03-02T01:44:09;86.80;;;38.83;;
31906;SDS011;18455;50.858;13.662;2024-03-02T01:49:09;80.90;;;35.63;;
31906;SDS011;18455;50.858;13.662;2024-03-02T01:54:09;79.03;;;36.13;;
31906;SDS011;18455;50.858;13.662;2024-03-02T01:59:10;87.30;;;39.90;;
31906;SDS011;18455;50.858;13.662;2024-03-02T02:04:10;97.20;;;44.73;;
31906;SDS011;18455;50.858;13.662;2024-03-02T02:09:10;105.33;;;45.47;;
31906;SDS011;18455;50.858;13.662;2024-03-02T02:14:10;100.80;;;42.57;;
31906;SDS011;18455;50.858;13.662;2024-03-02T02:19:11;103.53;;;45.67;;
31906;SDS011;18455;50.858;13.662;2024-03-02T02:24:11;104.53;;;44.97;;
31906;SDS011;18455;50.858;13.662;2024-03-02T02:29:13;93.07;;;42.43;;
31906;SDS011;18455;50.858;13.662;2024-03-02T02:34:13;102.33;;;42.33;;
31906;SDS011;18455;50.858;13.662;2024-03-02T02:39:15;104.17;;;45.93;;
31906;SDS011;18455;50.858;13.662;2024-03-02T02:44:17;111.23;;;48.73;;
31906;SDS011;18455;50.858;13.662;2024-03-02T02:49:17;140.37;;;50.83;;
31906;SDS011;18455;50.858;13.662;2024-03-02T02:54:17;107.40;;;41.53;;
31906;SDS011;18455;50.858;13.662;2024-03-02T02:59:17;104.90;;;40.20;;
31906;SDS011;18455;50.858;13.662;2024-03-02T03:04:18;102.07;;;42.20;;
31906;SDS011;18455;50.858;13.662;2024-03-02T03:09:18;112.80;;;44.83;;
31906;SDS011;18455;50.858;13.662;2024-03-02T03:14:18;95.93;;;38.30;;
31906;SDS011;18455;50.858;13.662;2024-03-02T03:19:18;91.60;;;42.23;;
31906;SDS011;18455;50.858;13.662;2024-03-02T03:24:18;80.53;;;36.03;;
31906;SDS011;18455;50.858;13.662;2024-03-02T03:29:18;92.83;;;40.27;;
31906;SDS011;18455;50.858;13.662;2024-03-02T03:34:19;90.27;;;40.47;;
31906;SDS011;18455;50.858;13.662;2024-03-02T03:39:19;79.00;;;37.67;;
31906;SDS011;18455;50.858;13.662;2024-03-02T03:44:19;81.83;;;36.90;;
31906;SDS011;18455;50.858;13.662;2024-03-02T03:49:19;77.73;;;37.10;;
31906;SDS011;18455;50.858;13.662;2024-03-02T03:54:20;84.97;;;39.73;;
31906;SDS011;18455;50.858;13.662;2024-03-02T03:59:20;79.57;;;38.40;;
31906;SDS011;18455;50.858;13.662;2024-03-02T04:04:20;88.50;;;40.73;;
31906;SDS011;18455;50.858;13.662;2024-03-02T04:09:20;79.40;;;36.93;;
31906;SDS011;18455;50.858;13.662;2024-03-02T04:14:20;80.60;;;38.57;;
31906;SDS011;18455;50.858;13.662;2024-03-02T04:19:20;84.10;;;38.93;;
31906;SDS011;18455;50.858;13.662;2024-03-02T04:24:21;80.20;;;38.97;;
31906;SDS011;18455;50.858;13.662;2024-03-02T04:29:21;90.43;;;40.73;;
31906;SDS011;18455;50.858;13.662;2024-03-02T04:34:21;88.70;;;39.63;;
31906;SDS011;18455;50.858;13.662;2024-03-02T04:39:21;83.53;;;39.53;;
31906;SDS011;18455;50.858;13.662;2024-03-02T04:44:22;76.30;;;35.83;;
31906;SDS011;18455;50.858;13.662;2024-03-02T04:49:22;66.87;;;34.30;;
31906;SDS011;18455;50.858;13.662;2024-03-02T04:54:22;71.67;;;34.47;;
31906;SDS011;18455;50.858;13.662;2024-03-02T04:59:22;93.50;;;41.07;;
31906;SDS011;18455;50.858;13.662;2024-03-02T05:04:22;84.03;;;39.67;;
31906;SDS011;18455;50.858;13.662;2024-03-02T05:09:22;74.30;;;38.40;;
31906;SDS011;18455;50.858;13.662;2024-03-02T05:14:23;64.80;;;36.63;;
31906;SDS011;18455;50.858;13.662;2024-03-02T05:19:23;58.77;;;33.87;;
31906;SDS011;18455;50.858;13.662;2024-03-02T05:24:23;62.37;;;34.03;;
31906;SDS011;18455;50.858;13.662;2024-03-02T05:29:23;51.33;;;26.67;;
31906;SDS011;18455;50.858;13.662;2024-03-02T05:34:24;41.70;;;24.70;;
31906;SDS011;18455;50.858;13.662;2024-03-02T05:39:24;40.70;;;23.53;;
31906;SDS011;18455;50.858;13.662;2024-03-02T05:44:24;40.63;;;23.00;;
31906;SDS011;18455;50.858;13.662;2024-03-02T05:49:24;38.77;;;22.50;;
31906;SDS011;18455;50.858;13.662;2024-03-02T05:54:24;44.20;;;24.03;;
31906;SDS011;18455;50.858;13.662;2024-03-02T05:59:25;42.70;;;24.77;;
31906;SDS011;18455;50.858;13.662;2024-03-02T06:04:25;41.87;;;23.03;;
31906;SDS011;18455;50.858;13.662;2024-03-02T06:09:25;40.60;;;23.57;;
31906;SDS011;18455;50.858;13.662;2024-03-02T06:14:26;38.67;;;21.90;;
31906;SDS011;18455;50.858;13.662;2024-03-02T06:19:26;40.83;;;22.03;;
31906;SDS011;18455;50.858;13.662;2024-03-02T06:24:27;43.37;;;23.00;;
31906;SDS011;18455;50.858;13.662;2024-03-02T06:29:27;41.70;;;22.53;;
31906;SDS011;18455;50.858;13.662;2024-03-02T06:34:28;43.10;;;21.97;;
31906;SDS011;18455;50.858;13.662;2024-03-02T06:39:28;39.63;;;22.50;;
31906;SDS011;18455;50.858;13.662;2024-03-02T06:44:28;40.60;;;22.23;;
31906;SDS011;18455;50.858;13.662;2024-03-02T06:49:28;40.93;;;22.57;;
31906;SDS011;18455;50.858;13.662;2024-03-02T06:54:28;43.13;;;25.90;;
31906;SDS011;18455;50.858;13.662;2024-03-02T06:59:29;46.80;;;25.67;;
31906;SDS011;18455;50.858;13.662;2024-03-02T07:04:29;41.47;;;25.50;;
31906;SDS011;18455;50.858;13.662;2024-03-02T07:09:29;36.50;;;19.77;;
31906;SDS011;18455;50.858;13.662;2024-03-02T07:14:29;40.43;;;20.80;;
31906;SDS011;18455;50.858;13.662;2024-03-02T07:19:48;33.07;;;18.43;;
31906;SDS011;18455;50.858;13.662;2024-03-02T07:24:49;39.00;;;21.20;;
31906;SDS011;18455;50.858;13.662;2024-03-02T07:29:49;42.67;;;24.30;;
31906;SDS011;18455;50.858;13.662;2024-03-02T07:34:49;36.03;;;20.70;;
31906;SDS011;18455;50.858;13.662;2024-03-02T07:39:50;31.93;;;19.53;;
31906;SDS011;18455;50.858;13.662;2024-03-02T07:44:51;31.70;;;18.57;;
31906;SDS011;18455;50.858;13.662;2024-03-02T07:49:51;35.30;;;20.03;;
31906;SDS011;18455;50.858;13.662;2024-03-02T07:54:51;34.37;;;19.03;;
31906;SDS011;18455;50.858;13.662;2024-03-02T07:59:52;33.80;;;20.00;;
31906;SDS011;18455;50.858;13.662;2024-03-02T08:04:52;37.00;;;21.23;;
31906;SDS011;18455;50.858;13.662;2024-03-02T08:09:52;38.77;;;23.40;;
31906;SDS011;18455;50.858;13.662;2024-03-02T08:14:52;29.87;;;18.07;;
31906;SDS011;18455;50.858;13.662;2024-03-02T08:19:52;26.00;;;16.43;;
31906;SDS011;18455;50.858;13.662;2024-03-02T08:24:53;23.53;;;13.97;;
31906;SDS011;18455;50.858;13.662;2024-03-02T08:29:54;21.60;;;14.17;;
31906;SDS011;18455;50.858;13.662;2024-03-02T08:34:54;23.20;;;15.97;;
31906;SDS011;18455;50.858;13.662;2024-03-02T08:39:54;24.07;;;16.27;;
31906;SDS011;18455;50.858;13.662;2024-03-02T08:44:55;19.43;;;13.00;;
31906;SDS011;18455;50.858;13.662;2024-03-02T08:49:55;20.50;;;13.20;;
31906;SDS011;18455;50.858;13.662;2024-03-02T08:54:55;18.40;;;12.83;;
31906;SDS011;18455;50.858;13.662;2024-03-02T08:59:55;20.17;;;11.97;;
31906;SDS011;18455;50.858;13.662;2024-03-02T09:04:56;26.17;;;18.30;;
31906;SDS011;18455;50.858;13.662;2024-03-02T09:09:56;17.37;;;11.30;;
31906;SDS011;18455;50.858;13.662;2024-03-02T09:14:56;13.50;;;10.00;;
31906;SDS011;18455;50.858;13.662;2024-03-02T09:19:57;14.00;;;10.53;;
31906;SDS011;18455;50.858;13.662;2024-03-02T09:24:57;11.07;;;7.80;;
31906;SDS011;18455;50.858;13.662;2024-03-02T09:29:58;11.43;;;8.60;;
31906;SDS011;18455;50.858;13.662;2024-03-02T09:34:58;14.83;;;10.37;;
31906;SDS011;18455;50.858;13.662;2024-03-02T09:39:58;15.10;;;10.03;;
31906;SDS011;18455;50.858;13.662;2024-03-02T09:44:59;14.43;;;10.37;;
31906;SDS011;18455;50.858;13.662;2024-03-02T09:49:59;15.93;;;10.00;;
31906;SDS011;18455;50.858;13.662;2024-03-02T09:54:59;17.23;;;10.83;;
31906;SDS011;18455;50.858;13.662;2024-03-02T09:59:59;23.53;;;12.67;;
31906;SDS011;18455;50.858;13.662;2024-03-02T10:05:00;20.03;;;12.47;;
31906;SDS011;18455;50.858;13.662;2024-03-02T10:10:13;20.23;;;13.00;;
31906;SDS011;18455;50.858;13.662;2024-03-02T10:15:14;24.63;;;10.37;;
31906;SDS011;18455;50.858;13.662;2024-03-02T10:20:24;24.50;;;13.30;;
31906;SDS011;18455;50.858;13.662;2024-03-02T10:25:28;26.17;;;13.80;;
31906;SDS011;18455;50.858;13.662;2024-03-02T10:30:28;36.87;;;21.83;;
31906;SDS011;18455;50.858;13.662;2024-03-02T10:35:29;35.63;;;19.40;;
31906;SDS011;18455;50.858;13.662;2024-03-02T10:40:32;39.20;;;21.13;;
31906;SDS011;18455;50.858;13.662;2024-03-02T10:45:32;33.37;;;19.13;;
31906;SDS011;18455;50.858;13.662;2024-03-02T10:50:33;36.33;;;21.10;;
31906;SDS011;18455;50.858;13.662;2024-03-02T10:55:33;29.30;;;17.70;;
31906;SDS011;18455;50.858;13.662;2024-03-02T11:00:34;29.43;;;16.17;;
31906;SDS011;18455;50.858;13.662;2024-03-02T11:05:42;25.57;;;15.27;;
31906;SDS011;18455;50.858;13.662;2024-03-02T11:15:43;26.10;;;14.20;;
31906;SDS011;18455;50.858;13.662;2024-03-02T11:20:44;26.80;;;13.90;;
31906;SDS011;18455;50.858;13.662;2024-03-02T11:25:44;33.20;;;18.70;;
31906;SDS011;18455;50.858;13.662;2024-03-02T11:35:44;40.77;;;21.50;;
31906;SDS011;18455;50.858;13.662;2024-03-02T11:40:48;53.17;;;25.17;;
31906;SDS011;18455;50.858;13.662;2024-03-02T11:45:48;17.03;;;10.83;;
31906;SDS011;18455;50.858;13.662;2024-03-02T11:50:57;20.77;;;11.63;;
31906;SDS011;18455;50.858;13.662;2024-03-02T11:55:58;18.17;;;12.75;;
31906;SDS011;18455;50.858;13.662;2024-03-02T12:00:58;15.52;;;10.82;;
31906;SDS011;18455;50.858;13.662;2024-03-02T12:05:59;19.13;;;12.10;;
31906;SDS011;18455;50.858;13.662;2024-03-02T12:10:59;21.37;;;11.70;;
31906;SDS011;18455;50.858;13.662;2024-03-02T12:16:00;19.00;;;11.13;;
31906;SDS011;18455;50.858;13.662;2024-03-02T12:21:00;22.48;;;12.65;;
31906;SDS011;18455;50.858;13.662;2024-03-02T12:26:03;21.63;;;13.02;;
31906;SDS011;18455;50.858;13.662;2024-03-02T12:31:03;19.52;;;12.00;;
31906;SDS011;18455;50.858;13.662;2024-03-02T12:36:03;27.33;;;11.57;;
31906;SDS011;18455;50.858;13.662;2024-03-02T12:41:04;20.48;;;9.57;;
31906;SDS011;18455;50.858;13.662;2024-03-02T12:46:05;18.73;;;9.85;;
31906;SDS011;18455;50.858;13.662;2024-03-02T12:51:06;17.02;;;9.63;;
31906;SDS011;18455;50.858;13.662;2024-03-02T12:56:07;25.08;;;13.13;;
31906;SDS011;18455;50.858;13.662;2024-03-02T13:01:08;20.05;;;11.15;;
31906;SDS011;18455;50.858;13.662;2024-03-02T13:06:09;23.87;;;11.60;;
31906;SDS011;18455;50.858;13.662;2024-03-02T13:11:09;24.15;;;14.05;;
31906;SDS011;18455;50.858;13.662;2024-03-02T13:16:10;24.08;;;12.90;;
31906;SDS011;18455;50.858;13.662;2024-03-02T13:21:10;26.00;;;12.83;;
31906;SDS011;18455;50.858;13.662;2024-03-02T13:26:10;23.97;;;14.33;;
31906;SDS011;18455;50.858;13.662;2024-03-02T13:31:12;26.57;;;14.20;;
31906;SDS011;18455;50.858;13.662;2024-03-02T13:36:12;27.40;;;14.93;;
31906;SDS011;18455;50.858;13.662;2024-03-02T13:41:13;29.47;;;14.53;;
31906;SDS011;18455;50.858;13.662;2024-03-02T13:46:13;33.57;;;16.37;;
31906;SDS011;18455;50.858;13.662;2024-03-02T13:51:13;24.42;;;14.27;;
31906;SDS011;18455;50.858;13.662;2024-03-02T13:56:13;27.50;;;15.90;;
31906;SDS011;18455;50.858;13.662;2024-03-02T14:01:13;28.50;;;15.00;;
31906;SDS011;18455;50.858;13.662;2024-03-02T14:06:14;27.33;;;16.43;;
31906;SDS011;18455;50.858;13.662;2024-03-02T14:11:14;32.60;;;17.17;;
31906;SDS011;18455;50.858;13.662;2024-03-02T14:16:15;30.70;;;15.50;;
31906;SDS011;18455;50.858;13.662;2024-03-02T14:21:15;28.57;;;16.33;;
31906;SDS011;18455;50.858;13.662;2024-03-02T14:26:18;35.87;;;15.77;;
31906;SDS011;18455;50.858;13.662;2024-03-02T14:31:19;30.53;;;16.47;;
31906;SDS011;18455;50.858;13.662;2024-03-02T14:36:20;32.00;;;17.17;;
31906;SDS011;18455;50.858;13.662;2024-03-02T14:41:20;32.57;;;18.90;;
31906;SDS011;18455;50.858;13.662;2024-03-02T14:46:20;35.13;;;19.97;;
31906;SDS011;18455;50.858;13.662;2024-03-02T14:51:20;40.20;;;21.03;;
31906;SDS011;18455;50.858;13.662;2024-03-02T14:56:21;40.27;;;22.90;;
31906;SDS011;18455;50.858;13.662;2024-03-02T15:01:21;35.47;;;20.43;;
31906;SDS011;18455;50.858;13.662;2024-03-02T15:06:22;37.57;;;21.13;;
31906;SDS011;18455;50.858;13.662;2024-03-02T15:11:23;37.13;;;21.50;;
31906;SDS011;18455;50.858;13.662;2024-03-02T15:16:25;39.17;;;20.40;;
31906;SDS011;18455;50.858;13.662;2024-03-02T15:21:25;45.23;;;25.60;;
31906;SDS011;18455;50.858;13.662;2024-03-02T15:26:25;50.80;;;29.17;;
31906;SDS011;18455;50.858;13.662;2024-03-02T15:31:25;38.53;;;23.23;;
31906;SDS011;18455;50.858;13.662;2024-03-02T15:36:26;42.83;;;22.77;;
31906;SDS011;18455;50.858;13.662;2024-03-02T15:41:26;42.07;;;21.43;;
31906;SDS011;18455;50.858;13.662;2024-03-02T15:46:26;31.77;;;18.60;;
31906;SDS011;18455;50.858;13.662;2024-03-02T15:51:26;29.57;;;16.73;;
31906;SDS011;18455;50.858;13.662;2024-03-02T15:56:27;40.63;;;23.80;;
31906;SDS011;18455;50.858;13.662;2024-03-02T16:01:27;42.27;;;25.73;;
31906;SDS011;18455;50.858;13.662;2024-03-02T16:06:28;33.60;;;18.07;;
31906;SDS011;18455;50.858;13.662;2024-03-02T16:11:28;41.20;;;23.07;;
31906;SDS011;18455;50.858;13.662;2024-03-02T16:16:28;41.70;;;21.27;;
31906;SDS011;18455;50.858;13.662;2024-03-02T16:21:28;37.00;;;20.47;;
31906;SDS011;18455;50.858;13.662;2024-03-02T16:26:29;38.43;;;19.57;;
31906;SDS011;18455;50.858;13.662;2024-03-02T16:31:29;34.10;;;17.20;;
31906;SDS011;18455;50.858;13.662;2024-03-02T16:36:29;28.47;;;18.43;;
31906;SDS011;18455;50.858;13.662;2024-03-02T16:41:32;37.67;;;20.83;;
31906;SDS011;18455;50.858;13.662;2024-03-02T16:46:33;34.20;;;18.43;;
31906;SDS011;18455;50.858;13.662;2024-03-02T16:51:39;32.07;;;20.20;;
31906;SDS011;18455;50.858;13.662;2024-03-02T16:56:40;25.47;;;18.13;;
31906;SDS011;18455;50.858;13.662;2024-03-02T17:01:40;30.67;;;18.93;;
31906;SDS011;18455;50.858;13.662;2024-03-02T17:06:40;34.97;;;23.63;;
31906;SDS011;18455;50.858;13.662;2024-03-02T17:11:40;36.37;;;23.37;;
31906;SDS011;18455;50.858;13.662;2024-03-02T17:16:41;41.00;;;24.77;;
31906;SDS011;18455;50.858;13.662;2024-03-02T17:21:42;41.77;;;25.60;;
31906;SDS011;18455;50.858;13.662;2024-03-02T17:26:42;35.90;;;22.47;;
31906;SDS011;18455;50.858;13.662;2024-03-02T17:31:42;37.53;;;23.63;;
31906;SDS011;18455;50.858;13.662;2024-03-02T17:36:42;42.27;;;25.43;;
31906;SDS011;18455;50.858;13.662;2024-03-02T17:41:43;36.73;;;23.03;;
31906;SDS011;18455;50.858;13.662;2024-03-02T17:46:44;31.37;;;20.57;;
31906;SDS011;18455;50.858;13.662;2024-03-02T17:51:44;40.60;;;24.97;;
31906;SDS011;18455;50.858;13.662;2024-03-02T17:56:44;33.23;;;19.47;;
31906;SDS011;18455;50.858;13.662;2024-03-02T18:01:44;35.83;;;22.53;;
31906;SDS011;18455;50.858;13.662;2024-03-02T18:06:44;30.03;;;18.87;;
31906;SDS011;18455;50.858;13.662;2024-03-02T18:11:45;32.57;;;18.93;;
31906;SDS011;18455;50.858;13.662;2024-03-02T18:16:45;29.80;;;19.50;;
31906;SDS011;18455;50.858;13.662;2024-03-02T18:21:45;28.10;;;15.93;;
31906;SDS011;18455;50.858;13.662;2024-03-02T18:26:46;22.17;;;14.13;;
31906;SDS011;18455;50.858;13.662;2024-03-02T18:31:46;23.67;;;13.67;;
31906;SDS011;18455;50.858;13.662;2024-03-02T18:36:46;23.87;;;14.97;;
31906;SDS011;18455;50.858;13.662;2024-03-02T18:41:47;26.30;;;16.93;;
31906;SDS011;18455;50.858;13.662;2024-03-02T18:46:47;35.13;;;23.07;;
31906;SDS011;18455;50.858;13.662;2024-03-02T18:51:48;28.40;;;17.63;;
31906;SDS011;18455;50.858;13.662;2024-03-02T18:56:48;34.93;;;23.43;;
31906;SDS011;18455;50.858;13.662;2024-03-02T19:01:48;40.83;;;24.53;;
31906;SDS011;18455;50.858;13.662;2024-03-02T19:06:49;30.97;;;19.53;;
31906;SDS011;18455;50.858;13.662;2024-03-02T19:11:49;37.47;;;22.03;;
31906;SDS011;18455;50.858;13.662;2024-03-02T19:16:49;50.60;;;26.07;;
31906;SDS011;18455;50.858;13.662;2024-03-02T19:21:49;33.27;;;18.70;;
31906;SDS011;18455;50.858;13.662;2024-03-02T19:26:50;141.43;;;63.03;;
31906;SDS011;18455;50.858;13.662;2024-03-02T19:31:50;111.20;;;52.97;;
31906;SDS011;18455;50.858;13.662;2024-03-02T19:36:50;40.97;;;22.50;;
31906;SDS011;18455;50.858;13.662;2024-03-02T19:41:50;29.00;;;19.40;;
31906;SDS011;18455;50.858;13.662;2024-03-02T19:46:51;32.37;;;20.47;;
31906;SDS011;18455;50.858;13.662;2024-03-02T19:51:51;34.37;;;21.03;;
31906;SDS011;18455;50.858;13.662;2024-03-02T19:56:52;40.10;;;25.33;;
31906;SDS011;18455;50.858;13.662;2024-03-02T20:01:55;99.43;;;47.20;;
31906;SDS011;18455;50.858;13.662;2024-03-02T20:06:55;50.17;;;29.20;;
31906;SDS011;18455;50.858;13.662;2024-03-02T20:11:55;52.60;;;29.20;;
31906;SDS011;18455;50.858;13.662;2024-03-02T20:16:57;49.87;;;27.60;;
31906;SDS011;18455;50.858;13.662;2024-03-02T20:21:57;54.40;;;29.10;;
31906;SDS011;18455;50.858;13.662;2024-03-02T20:26:58;52.20;;;29.10;;
31906;SDS011;18455;50.858;13.662;2024-03-02T20:31:58;51.30;;;31.57;;
31906;SDS011;18455;50.858;13.662;2024-03-02T20:36:58;51.47;;;29.37;;
31906;SDS011;18455;50.858;13.662;2024-03-02T20:42:00;47.73;;;28.33;;
31906;SDS011;18455;50.858;13.662;2024-03-02T20:47:01;49.77;;;27.30;;
31906;SDS011;18455;50.858;13.662;2024-03-02T20:52:01;56.30;;;31.80;;
31906;SDS011;18455;50.858;13.662;2024-03-02T20:57:01;52.73;;;30.40;;
31906;SDS011;18455;50.858;13.662;2024-03-02T21:02:05;54.03;;;30.33;;
31906;SDS011;18455;50.858;13.662;2024-03-02T21:07:06;54.67;;;30.60;;
31906;SDS011;18455;50.858;13.662;2024-03-02T21:12:06;45.20;;;30.43;;
31906;SDS011;18455;50.858;13.662;2024-03-02T21:17:08;50.50;;;30.30;;
31906;SDS011;18455;50.858;13.662;2024-03-02T21:22:08;48.13;;;25.70;;
31906;SDS011;18455;50.858;13.662;2024-03-02T21:27:09;48.90;;;32.20;;
31906;SDS011;18455;50.858;13.662;2024-03-02T21:32:10;56.03;;;34.77;;
31906;SDS011;18455;50.858;13.662;2024-03-02T21:37:10;53.43;;;35.77;;
31906;SDS011;18455;50.858;13.662;2024-03-02T21:42:11;58.43;;;39.50;;
31906;SDS011;18455;50.858;13.662;2024-03-02T21:47:11;45.87;;;27.87;;
31906;SDS011;18455;50.858;13.662;2024-03-02T21:52:12;62.80;;;38.10;;
31906;SDS011;18455;50.858;13.662;2024-03-02T21:57:12;63.63;;;39.00;;
31906;SDS011;18455;50.858;13.662;2024-03-02T22:02:19;59.73;;;38.77;;
31906;SDS011;18455;50.858;13.662;2024-03-02T22:07:19;59.50;;;33.83;;
31906;SDS011;18455;50.858;13.662;2024-03-02T22:12:19;63.13;;;38.87;;
31906;SDS011;18455;50.858;13.662;2024-03-02T22:17:20;63.77;;;40.17;;
31906;SDS011;18455;50.858;13.662;2024-03-02T22:22:20;61.67;;;38.77;;
31906;SDS011;18455;50.858;13.662;2024-03-02T22:27:20;57.77;;;31.73;;
31906;SDS011;18455;50.858;13.662;2024-03-02T22:32:20;59.07;;;37.47;;
31906;SDS011;18455;50.858;13.662;2024-03-02T22:37:20;60.37;;;37.53;;
31906;SDS011;18455;50.858;13.662;2024-03-02T22:42:21;58.10;;;36.73;;
31906;SDS011;18455;50.858;13.662;2024-03-02T22:47:22;54.60;;;36.50;;
31906;SDS011;18455;50.858;13.662;2024-03-02T22:52:22;53.10;;;32.63;;
31906;SDS011;18455;50.858;13.662;2024-03-02T22:57:22;50.10;;;32.90;;
31906;SDS011;18455;50.858;13.662;2024-03-02T23:02:22;52.13;;;33.17;;
31906;SDS011;18455;50.858;13.662;2024-03-02T23:07:23;52.03;;;30.10;;
31906;SDS011;18455;50.858;13.662;2024-03-02T23:12:23;48.90;;;30.50;;
31906;SDS011;18455;50.858;13.662;2024-03-02T23:17:24;43.60;;;26.47;;
31906;SDS011;18455;50.858;13.662;2024-03-02T23:22:24;46.50;;;29.07;;
31906;SDS011;18455;50.858;13.662;2024-03-02T23:27:24;47.10;;;24.90;;
31906;SDS011;18455;50.858;13.662;2024-03-02T23:32:24;40.40;;;28.23;;
31906;SDS011;18455;50.858;13.662;2024-03-02T23:37:24;41.40;;;23.63;;
31906;SDS011;18455;50.858;13.662;2024-03-02T23:42:25;44.03;;;23.23;;
31906;SDS011;18455;50.858;13.662;2024-03-02T23:47:25;37.53;;;20.90;;
31906;SDS011;18455;50.858;13.662;2024-03-02T23:52:26;42.63;;;25.77;;
31906;SDS011;18455;50.858;13.662;2024-03-02T23:57:26;34.70;;;20.97;;
